Amberson, PA

12:03 AM EDT on July 26, 2016 (GMT -0400)
Upper Mifflin Township | | Change Station

Elev 659 ft 40.21 °N, 77.49 °W | Updated 14 seconds ago

Clear
Clear
72.0 °F
Feels Like 72.0 °F
N
0.0
Wind Variable Wind from NW
Gusts 0.0 mph

Today
High -- | Low -- °F
--% Chance of Precip.
Yesterday
High -- | Low -- °F
Precip. -- in
Pressure 29.95 in
Visibility 10.0 miles
Clouds Clear
Dew Point 72 °F
Humidity 99%
Rainfall 0.00 in
Snow Depth Not available.
6:03 AM 8:30 PM
Waning Gibbous, 59% visible
METAR KHGR 260353Z AUTO VRB03KT 10SM CLR 27/23 A2994 RMK AO2 SLP140 T02670228
Pressure 29.95 in
Visibility 10.0 miles
Clouds Clear
Dew Point 72 °F
Humidity 99%
Rainfall 0.00 in
Snow Depth Not available.
6:03 AM 8:30 PM
Waning Gibbous, 59% visible
METAR KHGR 260353Z AUTO VRB03KT 10SM CLR 27/23 A2994 RMK AO2 SLP140 T02670228
Record highs are possible for parts of the Northeast Monday and Tuesday, as parts of the central U.S. take a little breather from the worst of summer's dog day heat.

Expansive high pressure in the upper atmosphere will focus on parts of the East and West this week, sending heat indices well into the triple digits from the Mid-Atlantic states into the South.

10-Day Weather Forecast

Almanac

Astronomy

Jul. 26, 2016 Rise Set
Actual Time
Civil Twilight
Nautical Twilight
Astronomical Twilight
Moon
Length of Visible Light
Length of Day
Tomorrow will be .
, % of the Moon is Illuminated

Today's Extremes

State Highs State Lows

Community

WunderPhotos

Upload Photos

1,927,530 photos uploaded!

WunderBlog® & News

Nearby

Air Quality

  Air Quality AQ Index Pollutant
Not available.

Snow Depth

Station Depth Elevation

Earthquake Activity

City Distance Mag. Time & Date
Minimum magnitude displayed is 2.5.

Coastal Water Temperatures

Place Temperature

Stations

Nearby Weather Stations

Station Location Temp. Windchill Dew Point Humidity Wind Precip. Elev Updated Type
                   

Watches & Warnings

There are currently no watches in effect.